Time;durP1;ratioP1;P1;durP2;ratioP2;P2;SDS_P1;SDS_P2;PMS_P1;PMS_P2;Temp;Humidity;BMP_temperature;BMP_pressure;BME280_temperature;BME280_humidity;BME280_pressure;Samples;Min_cycle;Max_cycle;Signal;HPM_P1;HPM_P2
2023/10/14 00:00:53;;;;;;;5.55;3.60;;;;;;;15.17;71.50;64556.72;5073971;28;20196;-54
2023/10/14 00:03:29;;;;;;;8.02;3.65;;;;;;;15.05;72.19;64539.53;5073920;28;20262;-54
2023/10/14 00:05:55;;;;;;;8.00;3.80;;;;;;;14.98;73.42;64534.41;5074028;28;20196;-53
2023/10/14 00:08:27;;;;;;;4.95;2.85;;;;;;;14.99;73.96;64535.50;5073755;28;20301;-52
2023/10/14 00:10:53;;;;;;;7.40;3.50;;;;;;;14.83;75.54;64517.34;5073806;28;20196;-52
2023/10/14 00:13:18;;;;;;;7.32;3.33;;;;;;;14.80;76.75;64517.16;5073796;28;20208;-54
2023/10/14 00:15:45;;;;;;;5.78;3.58;;;;;;;14.91;75.57;64526.69;5073938;28;20197;-53
2023/10/14 00:18:13;;;;;;;6.05;3.08;;;;;;;14.94;75.65;64532.53;5073970;28;20251;-53
2023/10/14 00:20:39;;;;;;;6.47;3.97;;;;;;;14.86;76.51;64518.13;5073979;28;20203;-51
2023/10/14 00:23:05;;;;;;;8.93;3.38;;;;;;;14.90;76.60;64525.06;5072383;28;20212;-55
2023/10/14 00:25:34;;;;;;;4.40;3.35;;;;;;;14.81;76.89;64515.69;5073615;28;20208;-53
2023/10/14 00:28:12;;;;;;;6.70;3.67;;;;;;;14.84;76.82;64519.00;5073674;28;20221;-54
2023/10/14 00:30:38;;;;;;;5.60;3.40;;;;;;;14.73;78.93;64506.91;5072526;28;20314;-54
2023/10/14 00:33:04;;;;;;;6.88;3.88;;;;;;;14.73;78.25;64509.44;5073750;28;20407;-53
2023/10/14 00:35:29;;;;;;;8.52;3.63;;;;;;;14.80;78.86;64517.16;5073481;28;20267;-54
2023/10/14 00:37:55;;;;;;;8.32;3.63;;;;;;;14.74;79.13;64508.03;5074021;28;20228;-53
2023/10/14 00:40:31;;;;;;;7.50;4.10;;;;;;;14.66;79.44;64501.75;5073740;28;20223;-53
2023/10/14 00:42:57;;;;;;;7.60;3.72;;;;;;;14.59;80.04;64491.53;5072124;28;20205;-53
2023/10/14 00:45:22;;;;;;;7.38;4.13;;;;;;;14.58;80.68;64490.44;5073309;28;20331;-53
2023/10/14 00:47:48;;;;;;;11.38;4.28;;;;;;;14.53;81.03;64486.91;5073486;28;20654;-54
2023/10/14 00:50:58;;;;;;;4.97;3.65;;;;;;;14.26;82.11;64455.25;5073373;28;20205;-52
2023/10/14 00:53:05;;;;;;;5.13;3.75;;;;;;;14.38;82.68;64468.47;5064853;28;20375;-53
2023/10/14 00:58:12;;;;;;;5.50;3.40;;;;;;;14.08;84.23;64436.00;5072766;28;20216;-52
2023/10/14 01:00:56;;;;;;;7.53;4.13;;;;;;;14.11;84.20;64438.75;5073162;28;20586;-55
2023/10/14 01:03:23;;;;;;;5.30;3.58;;;;;;;14.11;83.92;64441.31;5072979;28;20205;-53
2023/10/14 01:05:48;;;;;;;4.18;3.30;;;;;;;14.12;83.74;64442.94;5073018;28;20200;-54
2023/10/14 01:08:14;;;;;;;7.47;3.97;;;;;;;14.13;83.58;64440.97;5072837;28;20575;-55
2023/10/14 01:10:42;;;;;;;8.32;3.95;;;;;;;14.15;84.11;64446.25;5072983;28;20651;-52
2023/10/14 01:13:17;;;;;;;7.13;4.00;;;;;;;14.18;82.51;64449.53;5072733;28;20294;-55
2023/10/14 01:15:46;;;;;;;7.25;4.07;;;;;;;14.20;84.23;64451.19;5071770;28;20188;-55
2023/10/14 01:18:14;;;;;;;7.18;4.00;;;;;;;13.99;84.07;64426.13;5073206;28;20295;-54
2023/10/14 01:20:40;;;;;;;9.35;5.35;;;;;;;13.86;85.89;64411.31;5072834;28;20674;-54
2023/10/14 01:23:14;;;;;;;11.18;5.30;;;;;;;13.71;87.56;64394.84;5072960;28;20266;-53
2023/10/14 01:25:50;;;;;;;13.70;5.43;;;;;;;13.68;88.41;64394.06;5071653;28;20208;-54
2023/10/14 01:28:30;;;;;;;16.25;5.43;;;;;;;13.83;88.53;64408.56;5072525;28;20767;-54
2023/10/14 01:31:34;;;;;;;15.98;5.50;;;;;;;13.96;87.76;64424.81;5072620;28;20205;-54
2023/10/14 01:34:04;;;;;;;11.05;5.13;;;;;;;14.04;87.00;64431.63;5072768;28;20210;-53
2023/10/14 01:36:37;;;;;;;11.35;5.30;;;;;;;14.14;85.75;64442.06;5072483;28;20262;-53
2023/10/14 01:39:11;;;;;;;10.15;5.60;;;;;;;14.20;86.58;64451.72;5072405;28;20193;-53
2023/10/14 01:41:37;;;;;;;8.07;5.50;;;;;;;14.20;86.71;64451.19;5072289;28;20209;-53
2023/10/14 01:44:05;;;;;;;11.05;4.85;;;;;;;14.29;86.08;64458.56;5072375;28;20207;-53
2023/10/14 01:46:36;;;;;;;13.18;4.93;;;;;;;14.25;86.02;64454.16;5072497;28;20227;-53
2023/10/14 01:49:15;;;;;;;10.98;4.90;;;;;;;14.45;84.46;64473.59;5072318;28;20208;-53
2023/10/14 01:51:41;;;;;;;11.00;4.88;;;;;;;14.28;85.77;64455.47;5072510;28;20243;-54
2023/10/14 01:54:09;;;;;;;10.18;5.22;;;;;;;14.19;86.86;64445.56;5072075;28;20671;-53
2023/10/14 01:56:34;;;;;;;12.43;5.43;;;;;;;14.18;87.23;64446.47;5072390;28;20236;-53
2023/10/14 01:59:01;;;;;;;8.60;5.10;;;;;;;14.25;87.01;64457.22;5072225;28;20220;-54
2023/10/14 02:01:28;;;;;;;11.10;5.18;;;;;;;14.22;87.06;64453.41;5070659;28;20290;-53
2023/10/14 02:03:54;;;;;;;11.20;5.05;;;;;;;14.14;87.49;64444.59;5072289;28;20193;-54
2023/10/14 02:06:26;;;;;;;12.60;5.50;;;;;;;14.21;86.65;64447.78;5072161;28;20201;-54
2023/10/14 02:08:54;;;;;;;10.93;5.80;;;;;;;14.24;86.77;64453.06;5072126;28;20204;-53
2023/10/14 02:11:20;;;;;;;13.88;4.97;;;;;;;14.21;86.37;64450.31;5071774;28;20205;-54
2023/10/14 02:13:49;;;;;;;8.43;4.85;;;;;;;14.17;87.16;64442.81;5072004;28;20235;-54
2023/10/14 02:16:17;;;;;;;13.60;5.22;;;;;;;14.32;85.97;64464.41;5071762;28;20212;-54
2023/10/14 02:18:43;;;;;;;8.55;4.65;;;;;;;14.26;86.14;64455.25;5071863;28;20240;-53
2023/10/14 02:21:12;;;;;;;13.55;5.68;;;;;;;14.08;84.69;64432.94;5071682;28;20248;-54
2023/10/14 02:23:46;;;;;;;10.30;5.00;;;;;;;14.04;85.03;64434.16;5070583;28;20264;-53
2023/10/14 02:26:22;;;;;;;7.45;3.88;;;;;;;13.89;84.93;64417.69;5071839;28;20205;-53
2023/10/14 02:28:51;;;;;;;10.10;4.00;;;;;;;13.85;85.43;64412.75;5071649;28;20192;-53
2023/10/14 02:31:18;;;;;;;5.10;3.75;;;;;;;13.84;85.04;64411.63;5071758;28;20205;-54
2023/10/14 02:33:48;;;;;;;6.80;3.45;;;;;;;14.03;83.21;64432.50;5071789;28;20189;-54
2023/10/14 02:36:17;;;;;;;9.23;4.22;;;;;;;13.83;84.37;64406.03;5071504;28;20224;-54
2023/10/14 02:38:45;;;;;;;10.30;4.13;;;;;;;13.93;83.25;64419.56;5071667;28;20279;-54
2023/10/14 02:41:14;;;;;;;8.13;3.95;;;;;;;13.87;83.55;64414.94;5071443;28;20205;-54
2023/10/14 02:43:42;;;;;;;9.85;6.50;;;;;;;13.69;84.23;64390.66;5071217;28;20705;-54
2023/10/14 02:46:10;;;;;;;5.28;3.85;;;;;;;13.56;86.21;64381.44;5071287;28;20197;-52
2023/10/14 02:48:53;;;;;;;5.97;3.75;;;;;;;13.57;85.61;64382.00;5071551;28;20204;-52
2023/10/14 02:51:29;;;;;;;4.97;3.17;;;;;;;13.57;85.71;64382.00;5071210;28;20200;-52
2023/10/14 02:53:56;;;;;;;7.50;3.30;;;;;;;13.40;87.25;64361.34;5071303;28;20211;-53
2023/10/14 02:56:33;;;;;;;6.72;4.10;;;;;;;13.41;87.11;64365.53;5070060;28;20318;-53
2023/10/14 02:58:59;;;;;;;4.88;3.65;;;;;;;13.41;87.54;64363.00;5069839;28;20231;-51
2023/10/14 03:01:31;;;;;;;5.70;3.80;;;;;;;13.42;87.65;64366.06;5070029;28;20695;-52
2023/10/14 03:03:57;;;;;;;7.22;3.58;;;;;;;13.39;89.08;64363.31;5070981;28;20200;-52
2023/10/14 03:06:23;;;;;;;6.78;3.35;;;;;;;13.34;88.13;64357.84;5070943;28;20212;-53
2023/10/14 03:08:57;;;;;;;13.70;7.53;;;;;;;13.30;88.83;64352.91;5071026;28;20200;-52
2023/10/14 03:11:26;;;;;;;5.28;3.83;;;;;;;13.39;87.34;64360.81;5071088;28;20249;-52
2023/10/14 03:13:53;;;;;;;7.72;3.95;;;;;;;13.29;87.98;64349.28;5071147;28;20667;-55
2023/10/14 03:16:18;;;;;;;9.38;4.55;;;;;;;13.30;87.97;64353.47;5070899;28;20221;-59
2023/10/14 03:18:44;;;;;;;8.65;3.97;;;;;;;13.34;87.79;64357.84;5070883;28;20765;-54
2023/10/14 03:21:21;;;;;;;4.47;3.15;;;;;;;13.21;89.18;64341.03;5070283;28;20205;-55
2023/10/14 03:23:47;;;;;;;6.00;3.80;;;;;;;13.28;88.95;64350.72;5069524;28;20309;-54
2023/10/14 03:26:13;;;;;;;5.82;3.72;;;;;;;13.10;88.79;64333.50;5069430;28;20197;-54
2023/10/14 03:28:52;;;;;;;5.75;3.97;;;;;;;13.04;90.21;64319.88;5070586;28;20197;-55
2023/10/14 03:31:24;;;;;;;6.45;3.40;;;;;;;12.85;91.55;64306.56;5070750;28;20212;-53
2023/10/14 03:33:52;;;;;;;5.82;3.60;;;;;;;12.82;92.17;64298.25;5070954;28;20195;-54
2023/10/14 03:36:22;;;;;;;6.25;4.40;;;;;;;12.78;92.81;64296.38;5070546;28;20205;-54
2023/10/14 03:38:55;;;;;;;4.85;3.42;;;;;;;12.79;92.79;64294.94;5070775;28;20228;-53
2023/10/14 03:41:21;;;;;;;5.78;3.70;;;;;;;12.75;93.36;64295.06;5070766;28;20248;-54
2023/10/14 03:43:58;;;;;;;5.00;3.42;;;;;;;12.79;93.11;64297.47;5070553;28;20200;-54
2023/10/14 03:46:35;;;;;;;8.13;3.78;;;;;;;12.76;93.23;64291.66;5070540;28;20361;-53
2023/10/14 03:49:06;;;;;;;5.38;3.78;;;;;;;12.88;92.76;64304.81;5070696;28;20160;-53
2023/10/14 03:51:32;;;;;;;6.93;3.90;;;;;;;12.87;92.22;64305.69;5070476;28;20247;-55
2023/10/14 03:54:42;;;;;;;5.35;3.53;;;;;;;12.86;92.19;64307.69;5070500;28;20265;-55
2023/10/14 03:56:50;;;;;;;4.65;3.60;;;;;;;12.90;92.20;64307.03;5062385;28;20596;-55
2023/10/14 03:59:21;;;;;;;6.28;4.00;;;;;;;12.93;91.74;64310.28;5070374;28;20188;-55
2023/10/14 04:01:54;;;;;;;5.63;3.33;;;;;;;13.03;90.48;64321.28;5070498;28;20223;-55
2023/10/14 04:04:21;;;;;;;5.13;3.50;;;;;;;12.97;91.02;64311.63;5070332;28;20203;-55
2023/10/14 04:09:42;;;;;;;7.90;3.88;;;;;;;12.70;92.57;64284.53;5070635;28;20203;-54
2023/10/14 04:12:11;;;;;;;6.72;3.20;;;;;;;12.65;93.19;64282.13;5070224;28;20227;-55
2023/10/14 04:14:37;;;;;;;7.05;3.92;;;;;;;12.73;93.02;64295.94;5070150;28;20200;-54
2023/10/14 04:17:18;;;;;;;7.55;3.78;;;;;;;12.63;93.41;64279.91;5070143;28;20217;-55
2023/10/14 04:19:47;;;;;;;6.25;3.63;;;;;;;12.72;92.68;64289.81;5069123;28;20208;-55
2023/10/14 04:27:45;;;;;;;6.95;3.45;;;;;;;12.60;93.26;64276.63;5070510;28;20314;-57
2023/10/14 04:30:13;;;;;;;5.70;3.63;;;;;;;12.60;93.26;64274.13;5069995;28;20185;-54
2023/10/14 04:35:23;;;;;;;7.10;3.43;;;;;;;12.38;95.57;64250.53;5073539;28;20189;-53
2023/10/14 04:37:52;;;;;;;7.67;3.60;;;;;;;12.35;95.60;64249.22;5084566;22;20758;-57
2023/10/14 04:51:06;;;;;;;10.23;4.23;;;;;;;12.15;97.31;64222.78;5093677;28;20196;-54
2023/10/14 04:53:32;;;;;;;8.57;4.30;;;;;;;12.10;98.52;64219.81;5075409;28;20421;-54
2023/10/14 04:56:04;;;;;;;6.37;3.77;;;;;;;12.13;98.69;64225.66;5093796;28;20630;-54
2023/10/14 04:58:32;;;;;;;9.47;4.03;;;;;;;12.18;98.89;64230.59;5093225;28;20180;-53
2023/10/14 05:01:00;;;;;;;11.40;4.50;;;;;;;12.26;98.18;64239.34;5093215;28;20212;-54
2023/10/14 05:03:30;;;;;;;8.67;4.63;;;;;;;12.25;98.39;64235.72;5093301;28;20283;-54
2023/10/14 05:05:57;;;;;;;10.20;3.93;;;;;;;12.44;96.46;64259.09;5093106;28;20211;-54
2023/10/14 05:08:44;;;;;;;5.57;3.47;;;;;;;12.37;95.68;64249.44;5093082;28;20243;-54
2023/10/14 05:11:13;;;;;;;5.60;3.57;;;;;;;12.22;97.45;64235.50;5093422;28;20200;-55
2023/10/14 05:13:42;;;;;;;8.98;5.18;;;;;;;12.35;96.10;64251.75;5092876;28;20216;-53
2023/10/14 05:16:15;;;;;;;6.55;4.05;;;;;;;12.39;96.96;64253.59;5093301;28;20678;-54
2023/10/14 05:18:59;;;;;;;7.87;4.10;;;;;;;12.47;96.87;64262.38;5092782;28;20227;-54
2023/10/14 05:24:28;;;;;;;10.18;4.05;;;;;;;12.77;92.75;64292.75;5075270;28;20622;-54
2023/10/14 05:26:59;;;;;;;5.53;4.03;;;;;;;12.72;92.99;64289.81;5074847;28;20224;-54
2023/10/14 05:29:28;;;;;;;5.70;3.80;;;;;;;12.82;93.32;64300.22;5092894;28;20215;-55
2023/10/14 05:32:10;;;;;;;5.72;3.60;;;;;;;12.83;91.46;64301.31;5092617;28;20212;-56
2023/10/14 05:34:38;;;;;;;5.57;3.67;;;;;;;12.84;92.82;64299.88;5092649;28;20180;-53
2023/10/14 05:37:07;;;;;;;7.72;3.58;;;;;;;13.36;96.97;64356.97;5092413;28;20654;-54
2023/10/14 05:39:37;;;;;;;5.22;3.50;;;;;;;13.42;90.43;64366.06;5092783;28;20200;-53
2023/10/14 05:42:13;;;;;;;12.32;4.57;;;;;;;13.33;90.41;64353.69;5092619;28;20219;-54
2023/10/14 05:44:49;;;;;;;11.85;4.28;;;;;;;13.22;90.24;64342.16;5092396;28;20192;-53
2023/10/14 05:47:19;;;;;;;4.80;3.60;;;;;;;13.10;90.24;64325.91;5074407;28;20274;-54
2023/10/14 05:49:46;;;;;;;6.18;4.32;;;;;;;12.82;92.26;64298.25;5074544;28;20196;-54
2023/10/14 05:52:12;;;;;;;6.68;4.38;;;;;;;12.94;92.26;64310.84;5092271;28;20223;-54
2023/10/14 05:54:40;;;;;;;6.55;4.22;;;;;;;12.94;91.44;64313.94;5092496;28;20199;-55
2023/10/14 05:57:09;;;;;;;6.38;3.95;;;;;;;13.01;91.31;64321.59;5057876;28;20305;-57
2023/10/14 05:59:38;;;;;;;8.48;4.32;;;;;;;13.09;90.20;64329.88;5074561;28;20692;-53
2023/10/14 06:02:07;;;;;;;8.73;4.43;;;;;;;13.08;90.36;64328.75;5092950;28;20212;-53
2023/10/14 06:04:42;;;;;;;6.22;3.67;;;;;;;13.19;89.47;64340.84;5092363;28;20204;-54
2023/10/14 06:07:12;;;;;;;6.07;3.75;;;;;;;13.25;89.03;64345.44;5092372;28;20204;-56
2023/10/14 06:09:39;;;;;;;6.18;4.00;;;;;;;13.32;89.07;64350.59;5074344;28;20208;-54
2023/10/14 06:12:14;;;;;;;11.30;3.97;;;;;;;13.41;88.87;64365.53;5092174;28;20212;-55
2023/10/14 06:14:47;;;;;;;7.07;3.97;;;;;;;13.53;87.95;64377.59;5092296;28;20195;-54
2023/10/14 06:17:14;;;;;;;5.75;3.80;;;;;;;13.55;89.54;64377.28;5057437;28;20219;-53
2023/10/14 06:19:40;;;;;;;9.15;4.25;;;;;;;13.64;89.27;64390.22;5092168;28;20226;-53
2023/10/14 06:22:08;;;;;;;7.07;3.85;;;;;;;13.73;88.17;64397.59;5092519;28;20212;-54
2023/10/14 06:24:35;;;;;;;7.28;3.63;;;;;;;13.88;86.71;64413.50;5092420;28;20204;-56
2023/10/14 06:27:20;;;;;;;13.02;4.97;;;;;;;13.96;85.68;64424.81;5073813;28;20678;-56
2023/10/14 06:29:47;;;;;;;5.75;3.85;;;;;;;13.92;85.62;64417.88;5074077;28;20210;-54
2023/10/14 06:32:13;;;;;;;12.38;6.75;;;;;;;13.94;86.31;64420.63;5091636;28;20228;-54
2023/10/14 06:34:39;;;;;;;12.10;4.32;;;;;;;13.98;86.80;64425.03;5073983;28;20207;-53
2023/10/14 06:37:07;;;;;;;7.70;3.95;;;;;;;14.07;86.03;64436.91;5091836;28;20220;-53
2023/10/14 06:39:39;;;;;;;9.18;3.85;;;;;;;14.14;86.94;64442.59;5091969;28;20594;-56
2023/10/14 06:42:05;;;;;;;8.27;3.58;;;;;;;14.29;84.36;64459.13;5092311;28;20667;-52
2023/10/14 06:44:32;;;;;;;10.02;4.05;;;;;;;14.32;83.17;64462.41;5091760;28;20253;-55
2023/10/14 06:46:58;;;;;;;7.45;3.97;;;;;;;14.24;82.11;64453.06;5092114;28;20216;-53
2023/10/14 06:49:32;;;;;;;7.88;4.00;;;;;;;14.28;83.00;64458.00;5091638;28;20218;-54
2023/10/14 06:51:58;;;;;;;12.00;4.82;;;;;;;14.29;81.46;64461.09;5072990;28;20761;-54
2023/10/14 06:54:30;;;;;;;8.57;4.53;;;;;;;14.39;82.27;64469.00;5091655;28;20245;-57
2023/10/14 06:56:56;;;;;;;9.38;4.70;;;;;;;14.56;81.50;64488.25;5090808;28;20204;-55
2023/10/14 06:59:21;;;;;;;6.28;3.63;;;;;;;14.72;80.94;64508.34;5091394;28;20631;-55
2023/10/14 07:01:48;;;;;;;7.82;3.97;;;;;;;14.87;80.08;64522.28;5091235;28;20208;-55
2023/10/14 07:04:16;;;;;;;12.18;6.10;;;;;;;14.95;82.78;64530.53;5091395;28;20269;-55
2023/10/14 07:06:48;;;;;;;14.38;4.20;;;;;;;15.13;77.91;64553.41;5091436;28;20224;-54
2023/10/14 07:09:17;;;;;;;7.60;4.95;;;;;;;15.02;78.26;64538.78;5091280;28;20192;-54
2023/10/14 07:11:47;;;;;;;8.68;4.95;;;;;;;15.14;78.82;64554.53;5073568;28;20272;-55
2023/10/14 07:14:13;;;;;;;8.60;4.13;;;;;;;15.38;79.50;64577.28;5091231;28;20766;-54
2023/10/14 07:16:40;;;;;;;10.60;4.50;;;;;;;15.70;74.53;64612.50;5091092;28;20211;-53
2023/10/14 07:19:06;;;;;;;8.27;5.05;;;;;;;15.73;75.49;64613.25;5091173;28;20200;-55
2023/10/14 07:21:31;;;;;;;6.60;3.90;;;;;;;15.71;77.35;64616.69;5091163;28;20214;-55
2023/10/14 07:24:05;;;;;;;8.07;4.65;;;;;;;15.77;77.97;64617.66;5091037;28;20708;-54
2023/10/14 07:26:36;;;;;;;10.35;5.82;;;;;;;15.94;75.37;64636.34;5091769;28;20204;-53
2023/10/14 07:29:06;;;;;;;13.43;6.95;;;;;;;16.10;76.31;64655.97;5073233;28;20520;-53
2023/10/14 07:31:32;;;;;;;6.50;3.85;;;;;;;16.27;70.03;64677.75;5091109;28;20208;-54
2023/10/14 07:34:08;;;;;;;9.07;4.38;;;;;;;16.23;71.20;64670.81;5090857;28;20211;-53
2023/10/14 07:36:35;;;;;;;11.20;4.43;;;;;;;16.32;72.07;64680.72;5072792;28;20304;-57
2023/10/14 07:39:27;;;;;;;6.00;4.50;;;;;;;16.21;72.29;64670.59;5091029;28;20550;-57
2023/10/14 07:41:52;;;;;;;7.57;3.40;;;;;;;16.37;72.26;64683.69;5090808;28;20299;-57
2023/10/14 07:44:19;;;;;;;8.35;3.75;;;;;;;16.79;69.83;64731.94;5072908;28;20607;-53
2023/10/14 07:46:46;;;;;;;10.32;3.88;;;;;;;16.88;69.04;64741.84;5090753;28;20224;-52
2023/10/14 07:49:14;;;;;;;8.73;3.60;;;;;;;17.06;68.63;64758.59;5072813;28;20207;-54
2023/10/14 07:51:39;;;;;;;10.48;4.35;;;;;;;17.46;65.59;64802.66;5090603;28;20212;-53
2023/10/14 07:54:07;;;;;;;9.27;4.10;;;;;;;17.45;68.16;64809.19;5055770;28;20191;-57
2023/10/14 07:56:34;;;;;;;15.48;4.45;;;;;;;17.77;66.29;64839.41;5091043;28;20200;-55
2023/10/14 07:59:01;;;;;;;13.57;5.35;;;;;;;17.94;66.36;64855.03;5090647;28;20224;-55
2023/10/14 08:01:27;;;;;;;14.57;5.63;;;;;;;17.88;66.63;64850.94;5090562;28;20308;-54
2023/10/14 08:03:56;;;;;;;13.18;4.78;;;;;;;18.10;68.18;64875.75;5072173;28;20219;-54
2023/10/14 08:06:22;;;;;;;14.68;6.28;;;;;;;18.29;66.23;64893.63;5072205;28;20265;-54
2023/10/14 08:08:50;;;;;;;9.73;5.57;;;;;;;18.48;65.30;64914.59;5075182;28;20203;-55
2023/10/14 08:11:16;;;;;;;11.00;5.30;;;;;;;18.65;63.55;64935.34;5076070;28;20295;-55
2023/10/14 08:13:43;;;;;;;13.45;6.88;;;;;;;18.80;62.85;64949.34;5075791;28;20295;-53
2023/10/14 08:16:11;;;;;;;12.00;6.00;;;;;;;19.15;60.56;64988.53;5094142;28;20208;-54
2023/10/14 08:18:37;;;;;;;13.27;5.78;;;;;;;19.40;61.45;65015.59;5093810;28;20192;-53
2023/10/14 08:21:03;;;;;;;16.38;6.43;;;;;;;19.58;60.24;65035.47;5094022;28;20270;-54
2023/10/14 08:23:29;;;;;;;14.60;5.82;;;;;;;19.76;59.52;65057.34;5075642;28;20239;-53
2023/10/14 08:25:57;;;;;;;14.70;6.45;;;;;;;20.00;57.68;65081.28;5094134;28;20229;-53
2023/10/14 08:28:27;;;;;;;16.77;6.72;;;;;;;19.85;58.69;65064.72;5093859;28;20377;-53
2023/10/14 08:30:55;;;;;;;12.43;5.82;;;;;;;20.39;56.45;65124.41;5075611;28;20199;-59
2023/10/14 08:33:23;;;;;;;12.57;5.60;;;;;;;20.72;55.93;65162.88;5093596;28;20319;-54
2023/10/14 08:35:50;;;;;;;9.27;5.57;;;;;;;20.90;55.44;65183.34;5093838;28;20200;-55
2023/10/14 08:38:19;;;;;;;13.45;5.28;;;;;;;21.34;54.10;65228.88;5093652;28;20208;-54
2023/10/14 08:40:49;;;;;;;10.63;5.10;;;;;;;21.57;52.13;65256.34;5074702;28;20329;-55
2023/10/14 08:43:19;;;;;;;11.32;5.88;;;;;;;21.73;51.71;65272.00;5092722;28;20212;-53
2023/10/14 08:45:48;;;;;;;7.45;4.93;;;;;;;21.98;50.38;65301.72;5075087;28;20228;-54
2023/10/14 08:48:24;;;;;;;21.08;7.28;;;;;;;22.16;52.59;65321.63;5073387;28;20263;-55
2023/10/14 08:50:53;;;;;;;16.35;7.78;;;;;;;22.01;50.25;65301.91;5073308;28;20208;-55
2023/10/14 08:53:22;;;;;;;15.23;6.75;;;;;;;22.12;51.09;65314.66;5072895;28;20227;-54
2023/10/14 08:55:49;;;;;;;30.02;11.40;;;;;;;22.61;50.74;65365.22;5072814;28;20214;-54
2023/10/14 08:58:14;;;;;;;19.83;7.53;;;;;;;22.36;47.53;65343.25;5072244;28;20208;-55
2023/10/14 09:00:43;;;;;;;16.60;7.25;;;;;;;21.99;47.81;65299.72;5073283;28;20588;-54
2023/10/14 09:03:09;;;;;;;14.60;5.30;;;;;;;22.44;48.21;65352.09;5072837;28;20212;-54
2023/10/14 09:05:39;;;;;;;8.23;4.90;;;;;;;22.68;47.78;65375.56;5072905;28;20290;-52
2023/10/14 09:08:06;;;;;;;12.00;5.20;;;;;;;22.57;46.49;65363.91;5073358;28;20208;-52
2023/10/14 09:10:33;;;;;;;12.85;5.72;;;;;;;23.04;45.77;65415.97;5072985;28;20213;-54
2023/10/14 09:13:06;;;;;;;12.32;5.95;;;;;;;23.57;46.43;65473.63;5072962;28;20244;-54
2023/10/14 09:15:34;;;;;;;13.85;6.03;;;;;;;24.01;45.01;65519.81;5072931;28;20224;-53
2023/10/14 09:18:00;;;;;;;13.25;5.72;;;;;;;24.42;43.62;65564.75;5072787;28;20208;-54
2023/10/14 09:20:38;;;;;;;12.82;5.45;;;;;;;24.28;43.96;65551.78;5054119;28;20219;-53
2023/10/14 09:23:17;;;;;;;13.45;4.78;;;;;;;24.46;41.67;65572.28;5072572;28;20205;-54
2023/10/14 09:25:52;;;;;;;14.45;5.20;;;;;;;24.78;42.18;65607.81;5072942;28;20204;-54
2023/10/14 09:28:22;;;;;;;10.93;5.15;;;;;;;25.01;40.85;65629.66;5054556;28;20204;-57
2023/10/14 09:30:50;;;;;;;6.68;4.47;;;;;;;25.44;40.37;65680.53;5072523;28;20197;-52
2023/10/14 09:33:21;;;;;;;11.55;5.32;;;;;;;25.65;40.72;65700.69;5072609;28;20295;-53
2023/10/14 09:35:50;;;;;;;19.60;4.95;;;;;;;25.25;39.78;65659.41;5072603;28;20212;-54
2023/10/14 09:38:22;;;;;;;9.45;3.70;;;;;;;25.72;40.43;65705.88;5072527;28;20292;-55
2023/10/14 09:40:53;;;;;;;11.32;5.90;;;;;;;26.15;39.89;65753.66;5072715;28;20204;-53
2023/10/14 09:43:23;;;;;;;11.35;4.90;;;;;;;26.01;38.50;65740.09;5072338;28;20709;-53
2023/10/14 09:45:56;;;;;;;10.80;5.65;;;;;;;26.28;38.96;65770.66;5072540;28;20671;-53
2023/10/14 09:48:31;;;;;;;7.65;5.32;;;;;;;25.84;39.27;65724.38;5054299;28;20242;-54
2023/10/14 09:51:00;;;;;;;14.48;8.63;;;;;;;25.14;39.15;65644.06;5055022;28;20208;-55
2023/10/14 09:53:36;;;;;;;14.55;6.57;;;;;;;25.29;39.88;65658.13;5072105;28;20204;-62
2023/10/14 09:56:10;;;;;;;14.52;7.20;;;;;;;26.13;39.62;65754.03;5072234;28;20627;-53
2023/10/14 09:58:46;;;;;;;11.73;6.05;;;;;;;26.11;38.77;65754.38;5072148;28;20242;-52
2023/10/14 10:01:16;;;;;;;8.25;4.95;;;;;;;26.51;38.21;65795.66;5054216;28;20220;-53
2023/10/14 10:04:06;;;;;;;11.30;7.05;;;;;;;26.75;37.63;65819.75;5072098;28;20207;-53
2023/10/14 10:07:09;;;;;;;15.82;9.38;;;;;;;26.64;36.79;65810.66;5054211;28;20224;-53
2023/10/14 10:09:54;;;;;;;10.00;5.38;;;;;;;26.97;37.44;65846.25;5071984;28;20212;-54
2023/10/14 10:12:20;;;;;;;8.10;4.38;;;;;;;27.37;36.15;65893.34;5071900;28;20228;-55
2023/10/14 10:14:56;;;;;;;10.32;3.95;;;;;;;27.54;35.74;65912.22;5072200;28;20266;-55
2023/10/14 10:17:24;;;;;;;9.23;4.70;;;;;;;27.91;36.53;65953.38;5071786;28;20294;-53
2023/10/14 10:20:12;;;;;;;15.38;7.40;;;;;;;27.67;35.19;65926.69;5071788;28;20254;-53
2023/10/14 10:22:52;;;;;;;10.70;4.38;;;;;;;26.81;35.79;65831.59;5071927;28;20295;-55
2023/10/14 10:25:22;;;;;;;10.20;4.68;;;;;;;26.81;35.59;65834.19;5071913;28;20208;-54
2023/10/14 10:27:55;;;;;;;9.05;4.22;;;;;;;26.58;35.92;65804.00;5072065;28;20204;-55
2023/10/14 10:30:21;;;;;;;13.90;4.85;;;;;;;27.19;36.37;65870.72;5071309;28;20220;-58
2023/10/14 10:32:50;;;;;;;10.60;5.32;;;;;;;27.81;35.92;65939.66;5070981;28;20212;-58
2023/10/14 10:35:20;;;;;;;6.30;4.40;;;;;;;27.77;34.65;65934.66;5071494;28;20205;-59
2023/10/14 10:37:59;;;;;;;11.27;6.22;;;;;;;27.87;34.47;65946.34;5071376;28;20217;-53
2023/10/14 10:40:28;;;;;;;12.70;5.28;;;;;;;28.24;34.34;65989.53;5071490;28;20219;-53
2023/10/14 10:43:09;;;;;;;13.15;5.43;;;;;;;27.80;33.74;65938.56;5071307;28;20698;-53
2023/10/14 10:45:40;;;;;;;13.02;4.45;;;;;;;27.98;34.17;65958.59;5054114;28;20211;-52
2023/10/14 10:48:10;;;;;;;8.05;3.63;;;;;;;27.97;34.23;65956.94;5053344;28;20205;-52
2023/10/14 10:50:37;;;;;;;7.38;3.60;;;;;;;28.32;35.08;65995.31;5071762;28;20211;-52
2023/10/14 10:53:05;;;;;;;7.40;3.78;;;;;;;28.64;35.26;66028.34;5071136;28;20293;-52
2023/10/14 10:55:31;;;;;;;8.45;4.22;;;;;;;28.75;33.33;66043.19;5071226;28;20204;-52
2023/10/14 10:58:03;;;;;;;8.98;4.32;;;;;;;28.96;34.13;66066.56;5070841;28;20219;-51
2023/10/14 11:00:30;;;;;;;5.40;3.90;;;;;;;29.20;33.01;66092.75;5053073;28;20213;-53
2023/10/14 11:03:01;;;;;;;7.72;3.95;;;;;;;29.08;33.38;66079.38;5070801;28;20205;-56
2023/10/14 11:05:28;;;;;;;5.65;3.25;;;;;;;28.83;33.00;66055.25;5071226;28;20191;-53
2023/10/14 11:07:55;;;;;;;7.65;3.85;;;;;;;28.83;33.81;66050.06;5071106;28;20753;-53
2023/10/14 11:10:28;;;;;;;13.13;3.67;;;;;;;29.04;32.80;66078.06;5070923;28;20197;-53
2023/10/14 11:13:00;;;;;;;10.00;3.78;;;;;;;29.23;34.17;66094.03;5070705;28;20232;-53
2023/10/14 11:15:27;;;;;;;8.93;3.80;;;;;;;29.25;34.37;66098.88;5071052;28;20200;-55
2023/10/14 11:17:57;;;;;;;8.50;4.15;;;;;;;29.49;33.76;66125.06;5052680;28;20398;-52
2023/10/14 11:20:31;;;;;;;7.57;4.10;;;;;;;29.45;32.13;66123.75;5052935;28;20223;-52
2023/10/14 11:22:58;;;;;;;8.68;3.60;;;;;;;29.45;33.24;66123.75;5052824;28;20212;-54
2023/10/14 11:25:24;;;;;;;8.40;3.83;;;;;;;29.21;31.79;66091.28;5070660;28;20240;-53
2023/10/14 11:27:50;;;;;;;5.80;3.72;;;;;;;29.05;32.78;66073.97;5052588;28;20285;-53
2023/10/14 11:30:16;;;;;;;11.02;4.43;;;;;;;28.72;32.01;66042.44;5070758;28;20224;-53
2023/10/14 11:32:49;;;;;;;8.77;3.50;;;;;;;28.33;32.29;65996.97;5070499;28;20217;-54
2023/10/14 11:35:19;;;;;;;8.27;4.13;;;;;;;28.54;33.48;66020.34;5070542;28;20262;-54
2023/10/14 11:38:00;;;;;;;8.20;3.50;;;;;;;29.01;33.87;66072.13;5070752;28;20709;-53
2023/10/14 11:40:40;;;;;;;6.07;3.40;;;;;;;29.18;32.08;66087.91;5070798;28;20685;-53
2023/10/14 11:43:11;;;;;;;7.28;3.40;;;;;;;29.26;32.45;66100.00;5066765;22;20229;-54
2023/10/14 11:45:41;;;;;;;7.45;3.72;;;;;;;29.06;32.28;66077.69;5049494;28;20235;-55
2023/10/14 11:48:07;;;;;;;6.60;3.58;;;;;;;29.12;31.12;66083.81;5049534;28;20225;-53
2023/10/14 11:50:34;;;;;;;9.23;3.47;;;;;;;29.02;31.94;66073.25;5050544;28;20212;-53
2023/10/14 11:53:02;;;;;;;8.68;3.33;;;;;;;29.14;33.24;66086.63;5050313;28;20256;-54
2023/10/14 11:55:30;;;;;;;6.43;3.42;;;;;;;29.13;31.24;66084.94;5048912;28;20212;-54
2023/10/14 11:57:56;;;;;;;9.68;4.03;;;;;;;28.77;31.57;66045.41;5050440;28;20213;-55
2023/10/14 12:00:24;;;;;;;31.08;8.25;;;;;;;28.20;34.01;65985.66;5050390;28;20235;-52
2023/10/14 12:02:50;;;;;;;6.43;3.28;;;;;;;28.49;31.52;66014.22;5050083;28;20224;-53
2023/10/14 12:05:17;;;;;;;7.40;3.40;;;;;;;28.20;31.31;65985.66;5050293;28;20263;-52
2023/10/14 12:07:51;;;;;;;5.72;3.10;;;;;;;28.71;33.02;66036.13;5048898;28;20201;-53
2023/10/14 12:10:17;;;;;;;4.80;3.30;;;;;;;29.10;32.83;66082.16;5065640;28;20758;-53